WetterOnline ( https://www.wetteronline.de )

Wetter aktuell Pfälzer Wald

Aktuelles Wetter: Weinbiet/Pfalz (557m)

6-stündlich | Neueste Meldungen
Ortszeit Temperatur Wetter
So, 22.05. 14:00 20.7° C leicht bewölkt
So, 22.05. 8:00 14.2° C leicht bewölkt
So, 22.05. 2:00 14.6° C wolkenlos
Sa, 21.05. 20:00 17.3° C wolkig
Sa, 21.05. 14:00 18.9° C bewölkt
Sa, 21.05. 8:00 8.8° C wolkig
Sa, 21.05. 2:00 11.5° C wolkenlos
Fr, 20.05. 20:00 22.3° C wolkig
Ortszeit Temperatur Wetter
So, 22.05. 19:00 18.6° C bedeckt
So, 22.05. 18:30 19.0° C bedeckt
So, 22.05. 18:20 19.0° C bedeckt
So, 22.05. 18:10 19.2° C bedeckt
So, 22.05. 18:00 19.4° C bedeckt
So, 22.05. 17:50 19.4° C bedeckt
So, 22.05. 17:30 19.8° C bedeckt
So, 22.05. 17:00 19.9° C bedeckt
So, 22.05. 16:30 20.3° C bedeckt
So, 22.05. 16:00 21.1° C bewölkt
Ortszeit Relative Feuchte Sichtweite
So, 22.05. 14:00 43% 55 km
So, 22.05. 8:00 68% 60 km
So, 22.05. 2:00 58% 60 km
Sa, 21.05. 20:00 53% 55 km
Sa, 21.05. 14:00 53% 35 km
Sa, 21.05. 8:00 97% 18 km
Sa, 21.05. 2:00 87% 50 km
Fr, 20.05. 20:00 56% 45 km
Ortszeit Relative Feuchte Sichtweite
So, 22.05. 19:00 48% 60 km
So, 22.05. 18:30 48% 65 km
So, 22.05. 18:20 48% -
So, 22.05. 18:10 45% -
So, 22.05. 18:00 48% 65 km
So, 22.05. 17:50 48% -
So, 22.05. 17:30 45% 45 km
So, 22.05. 17:00 44% 45 km
So, 22.05. 16:30 44% 55 km
So, 22.05. 16:00 41% 60 km
Ortszeit Niederschlagsmenge Niederschlagsart
So, 22.05. 14:00 0.0 l/m2 in 6 Std. -
So, 22.05. 8:00 0.0 l/m2 in 12 Std. -
So, 22.05. 2:00 0.0 l/m2 in 6 Std. -
Sa, 21.05. 20:00 0.0 l/m2 in 12 Std. -
Sa, 21.05. 14:00 0.0 l/m2 in 6 Std. -
Sa, 21.05. 8:00 3 l/m2 in 12 Std. -
Sa, 21.05. 2:00 3 l/m2 in 6 Std. Regen
Fr, 20.05. 20:00 0.1 l/m2 in 12 Std. Regen
Ortszeit Niederschlagsmenge Niederschlagsart
So, 22.05. 19:00 keine Meldung -
So, 22.05. 18:30 0.0 l/m2 in 1 Std. -
So, 22.05. 18:20 keine Meldung -
So, 22.05. 18:10 keine Meldung -
So, 22.05. 18:00 0.0 l/m2 in 1 Std. -
So, 22.05. 17:50 keine Meldung -
So, 22.05. 17:30 0.0 l/m2 in 1 Std. -
So, 22.05. 17:00 0.0 l/m2 in 1 Std. -
So, 22.05. 16:30 0.0 l/m2 in 1 Std. -
So, 22.05. 16:00 0.0 l/m2 in 1 Std. -
Ortszeit Stärke Spitze Richtung
km/h Bft. km/h Grad Sektor
So, 22.05. 14:00 14 3 25 90° O
So, 22.05. 8:00 4 1 18 80° O
So, 22.05. 2:00 4 1 22 40° NO
Sa, 21.05. 20:00 15 3 43 250° W
Sa, 21.05. 14:00 24 4 50 250° W
Sa, 21.05. 8:00 26 4 48 270° W
Sa, 21.05. 2:00 37 5 91 280° W
Fr, 20.05. 20:00 47 6 86 250° W
Ortszeit Stärke Spitze Richtung
km/h Bft. km/h Grad Sektor
So, 22.05. 19:00 14 3 29 60° NO
So, 22.05. 18:30 13 3 17 70° O
So, 22.05. 18:20 13 3 - 70° O
So, 22.05. 18:10 13 3 - 70° O
So, 22.05. 18:00 13 3 19 80° O
So, 22.05. 17:50 13 3 - 80° O
So, 22.05. 17:30 11 2 15 70° O
So, 22.05. 17:00 7 2 17 80° O
So, 22.05. 16:30 11 2 18 80° O
So, 22.05. 16:00 13 3 30 70° O
Ortszeit Untergrenze Bedeckung Gattung
total tief tief mittel hoch
So, 22.05. 14:00 8700 m 7/8 0/8 - - -
So, 22.05. 8:00 7800 m 8/8 0/8 - - -
So, 22.05. 2:00 - 0/8 0/8 - - -
Sa, 21.05. 20:00 5100 m 8/8 7/8 - - -
Sa, 21.05. 14:00 1080 m 7/8 7/8 - - -
Sa, 21.05. 8:00 60 m 7/8 5/8 - - -
Sa, 21.05. 2:00 - 0/8 0/8 - - -
Fr, 20.05. 20:00 1800 m 8/8 1/8 - - -
Ortszeit Bedeckungsgrad in Achtel und Wolkenuntergrenze
So, 22.05. 19:00 6(3000m) 8(3600m)
So, 22.05. 18:30 5(3600m) 8(3900m)
So, 22.05. 18:20 5(3600m) 8(3900m)
So, 22.05. 18:10 8
So, 22.05. 18:00 4(3300m) 8(4200m) 8(5100m)
So, 22.05. 17:50 4(3300m) 8(4200m) 8(5100m)
So, 22.05. 17:30 8(3900m)
So, 22.05. 17:00 8(3900m)
So, 22.05. 16:30 8(4200m) 8(6900m)
So, 22.05. 16:00 1(4200m) 7(6900m) 7(9000m)
Ortszeit Luftdruck NN (hPa) Tendenz (hPa in 3 Std.)
So, 22.05. 14:00 1014 - 1,3
So, 22.05. 8:00 1017 - 0,6
So, 22.05. 2:00 1019 - 1,1
Sa, 21.05. 20:00 1019 - 1,3
Sa, 21.05. 14:00 1022 - 0,5
Sa, 21.05. 8:00 1024 + 0,5
Sa, 21.05. 2:00 1022 + 1,7
Fr, 20.05. 20:00 1014 - 0,4
Ortszeit Luftdruck NN (hPa) Tendenz (hPa in 3 Std.)
So, 22.05. 19:00 1011 - 1,7
So, 22.05. 18:30 1012 - 1,2
So, 22.05. 18:20 1012 keine Meldung
So, 22.05. 18:10 1012 keine Meldung
So, 22.05. 18:00 1012 - 1,1
So, 22.05. 17:50 1012 keine Meldung
So, 22.05. 17:30 1012 - 0,8
So, 22.05. 17:00 1013 - 0,9
So, 22.05. 16:30 1013 - 1,0
So, 22.05. 16:00 1012 - 1,4
Ortszeit Schneehöhe (cm)
So, 22.05. 14:00 0
So, 22.05. 8:00 0
So, 22.05. 2:00 0
Sa, 21.05. 20:00 0
Sa, 21.05. 14:00 0
Sa, 21.05. 8:00 0
Sa, 21.05. 2:00 0
Fr, 20.05. 20:00 0
Ortszeit Schneehöhe (cm)
So, 22.05. 19:00 -
So, 22.05. 18:30 0
So, 22.05. 18:20 0
So, 22.05. 18:10 0
So, 22.05. 18:00 0
So, 22.05. 17:50 0
So, 22.05. 17:30 0
So, 22.05. 17:00 0
So, 22.05. 16:30 0
So, 22.05. 16:00 0
Link zu dieser Seite / Seite empfehlen

Das Wetter in ...